Jemez Springs, Valles Caldera, New Mexico Weather observations

Data are for 10 minute period ending at time listed.
 Day   Time   Solar   Ave.   Ave.  Ave.  Vector  Max.   Baro.   Total    
  of    of     Rad.   Air    Rel.  Wind   Wind   Wind  Press.  Precip.   
Year   Day            Temp.  Hum.  Speed  Dir.   Gust                    
2016   (MST)  Kw/m2    F      %     mph   deg.    mph    mb.     in.     
-------------------------------------------------------------------------
 242   17:30   0.05   73.5    29    6.4   156    11.9   813.3    0.00 
 242   17:40   0.04   72.6    30    5.4   190    11.9   813.2    0.00 
 242   17:50   0.02   72.1    31    3.9   184     9.6   813.3    0.00 
 242   18:00   0.02   71.3    32    1.5   220     3.6   813.3    0.00 
 242   18:10   0.02   70.2    35    1.7   270     3.0   813.3    0.00 
 242   18:20   0.01   69.3    39    2.3   346     3.6   813.4    0.00 
 242   18:30   0.01   68.4    42    2.1    47     6.0   813.7    0.00 
 242   18:40   0.00   69.4    37    2.2   185     6.6   813.7    0.00 
 242   18:50   0.00   68.9    40    0.9    69     3.0   813.7    0.00 
 242   19:00   0.00   67.8    41    2.0   275     3.6   813.8    0.00 
 242   19:10   0.00   66.2    46    3.7   173    12.5   813.9    0.00 
 242   19:20   0.00   66.2    46    3.8   165    10.8   814.2    0.00 
 242   19:30   0.00   65.5    48    3.2   216     8.4   814.3    0.00 
 242   19:40   0.00   64.7    50    2.8   317     6.0   814.5    0.00 
 242   19:50   0.00   63.3    53    2.7    56     6.0   814.7    0.00 
 242   20:00   0.00   61.6    58    1.4    30     4.8   814.9    0.00 
 242   20:10   0.00   60.2    62    2.6    22     4.2   815.1    0.00 
 242   20:20   0.00   58.9    66    2.5    33     4.2   815.3    0.00 
 242   20:30   0.00   58.0    68    2.2     5     3.6   815.4    0.00 
 242   20:40   0.00   58.2    66    1.1    13     6.0   815.5    0.00 
 242   20:50   0.00   57.9    67    2.1     8     6.6   815.7    0.00 
 242   21:00   0.00   57.7    68    3.5    26     6.0   815.9    0.00 
 242   21:10   0.00   57.5    68    3.7    16     7.2   816.0    0.00 
 242   21:20   0.00   57.2    69    0.6    19     2.4   816.2    0.00 
 242   21:30   0.00   56.6    71    4.1    20     7.8   816.4    0.00 
 242   21:40   0.00   56.4    71    2.5   349     7.2   816.5    0.00 
 242   21:50   0.00   56.2    71    2.6     3     6.0   816.6    0.00 
 242   22:00   0.00   55.4    73    1.5    19     4.2   816.7    0.00 
 242   22:10   0.00   55.1    74    4.5    19     7.8   816.7    0.00 
 242   22:20   0.00   55.0    73    5.1   353     9.6   816.7    0.00 
 242   22:30   0.00   54.8    74    4.2    16     9.6   816.7    0.00 
 242   22:40   0.00   54.5    74    3.0     2    10.8   816.7    0.00 
 242   22:50   0.00   53.9    76    2.6   357     7.8   816.7    0.00 
 242   23:00   0.00   53.3    77    2.6    27     7.2   816.6    0.00 
 242   23:10   0.00   53.2    77    5.0    27     9.0   816.7    0.00 
 242   23:20   0.00   53.1    77    4.7    31     7.8   816.7    0.00 
 242   23:30   0.00   53.1    77    5.0    18    10.2   816.8    0.00 
 242   23:40   0.00   53.1    76    4.5    25     6.6   816.8    0.00 
 242   23:50   0.00   52.9    77    3.8     9     7.2   816.8    0.00 
 243    0:00   0.00   53.0    76    4.7   353     7.8   816.8    0.00 
 243    0:10   0.00   53.0    76    4.5    18    10.2   816.9    0.00 
 243    0:20   0.00   52.7    76    3.8   356     6.6   816.9    0.00 
 243    0:30   0.00   52.5    77    3.5   358     7.2   816.9    0.00 
 243    0:40   0.00   52.4    77    3.5     0     7.2   816.8    0.00 
 243    0:50   0.00   52.4    76    2.7    15     6.0   816.6    0.00 
 243    1:00   0.00   52.1    77    3.8   358     7.2   816.6    0.00 
 243    1:10   0.00   52.1    77    4.9     5     9.0   816.6    0.00 
 243    1:20   0.00   51.7    78    4.7    13     7.8   816.5    0.00 
 243    1:30   0.00   51.6    77    4.1    12     8.4   816.5    0.00 
 243    1:40   0.00   51.6    77    3.7     1     6.0   816.5    0.00 
 243    1:50   0.00   51.4    77    3.4     9     7.2   816.4    0.00 
 243    2:00   0.00   51.3    78    4.0     8    10.2   816.4    0.00 
 243    2:10   0.00   51.0    78    3.5     7     6.6   816.3    0.00 
 243    2:20   0.00   51.1    78    4.2   355     7.8   816.3    0.00 
 243    2:30   0.00   51.0    78    4.9    10     9.6   816.2    0.00 
 243    2:40   0.00   50.8    78    4.9   351    10.2   816.3    0.00 
 243    2:50   0.00   50.9    77    4.1     2     9.6   816.3    0.00 
 243    3:00   0.00   51.1    77    4.9    12    10.8   816.3    0.00 
 243    3:10   0.00   50.8    77    3.7    17    10.8   816.3    0.00 
 243    3:20   0.00   50.5    78    4.5    16     8.4   816.3    0.00 
 243    3:30   0.00   50.6    77    4.9    16     9.0   816.3    0.00 
 243    3:40   0.00   50.4    77    4.3    20     7.8   816.3    0.00 
 243    3:50   0.00   50.5    76    5.0    11     8.4   816.3    0.00 
 243    4:00   0.00   50.5    76    4.2    10     9.6   816.3    0.00 
 243    4:10   0.00   50.2    77    3.5    16     6.6   816.4    0.00 
 243    4:20   0.00   50.0    78    4.7    18     9.0   816.4    0.00 
 243    4:30   0.00   50.0    77    4.5     2     8.7   816.4    0.00 
 243    4:40   0.00   50.0    77    5.2    10    10.2   816.4    0.00 
 243    4:50   0.00   50.0    76    4.4    18     8.4   816.5    0.00 
 243    5:00   0.00   49.7    77    4.4    11     9.0   816.5    0.00 
 243    5:10   0.00   49.4    78    3.8    10     7.8   816.6    0.00 
 243    5:20   0.00   49.5    77    3.9     4     7.8   816.6    0.00 
 243    5:30   0.00   49.4    78    3.6     0     7.2   816.7    0.00 
 243    5:40   0.00   49.3    78    2.9     5     6.0   816.8    0.00 
 243    5:50   0.01   49.3    77    4.5   359     7.8   816.8    0.00 
 243    6:00   0.01   49.5    77    5.9     4    11.9   816.8    0.00 
 243    6:10   0.01   49.5    77    5.5     5    10.2   816.9    0.00 
 243    6:20   0.01   49.5    76    6.1     1    10.8   816.9    0.00 
 243    6:30   0.02   49.5    77    4.3    20     7.8   816.9    0.00 
 243    6:40   0.02   49.5    76    5.1    15     9.6   816.9    0.00 
 243    6:50   0.04   49.7    76    3.0    37     7.2   816.9    0.00 
 243    7:00   0.23   50.8    75    4.9    26     9.6   817.0    0.00 
 243    7:10   0.28   53.2    70    3.9    33     8.4   817.0    0.00 
 243    7:20   0.32   55.1    67    4.4    35     9.6   816.9    0.00 
 243    7:30   0.36   56.9    64    4.2    37     7.2   816.8    0.00 
 243    7:40   0.40   58.7    61    3.7    45     6.6   816.8    0.00 
 243    7:50   0.43   59.3    60    3.7    52     5.4   816.7    0.00 
 243    8:00   0.47   61.4    58    3.2    45     6.0   816.6    0.00 
 243    8:10   0.50   63.4    54    2.1    35     4.2   816.5    0.00 
 243    8:20   0.54   65.6    50    1.8    90     3.0   816.4    0.00 
 243    8:30   0.57   67.2    48    3.6   182     5.4   816.3    0.00 
 243    8:40   0.62   66.2    50    3.9   177     6.6   816.3    0.00 
 243    8:50   0.58   67.4    49    2.8   164     4.8   816.3    0.00 
 243    9:00   0.54   68.0    47    3.8   138     6.0   816.2    0.00 
 243    9:10   0.70   68.4    48    4.0   166     6.0   816.2    0.00 
 243    9:20   0.73   68.9    46    4.6   176     8.4   816.1    0.00 
 243    9:30   0.75   69.1    47    4.9   159     9.0   816.0    0.00 
 243    9:40   0.48   68.5    48    6.6   152    10.8   816.1    0.00 
 243    9:50   0.29   67.4    50    5.6   164    10.8   816.1    0.00 
 243   10:00   0.47   68.5    48    5.3   164    10.8   816.0    0.00 
 243   10:10   0.77   69.2    48    7.7   177    13.7   816.0    0.00 
 243   10:20   0.59   69.6    46    7.9   179    11.9   816.0    0.00 
 243   10:30   0.71   69.6    46    6.4   176    13.7   815.9    0.00 
 243   10:40   0.59   71.2    44    5.8   165    11.3   815.7    0.00 
 243   10:50   0.94   72.3    42    6.8   170    12.5   815.6    0.00 
 243   11:00   0.42   72.3    40    5.6   164    13.1   815.5    0.00 
 243   11:10   0.72   71.7    42    5.3   196     9.6   815.5    0.00 
 243   11:20   0.83   72.8    38    7.3   177    17.9   815.4    0.00 
 243   11:30   0.79   73.4    37    5.4   198    11.9   815.2    0.00 
 243   11:40   0.71   72.8    37    7.3   157    13.1   815.0    0.00 
 243   11:50   0.56   72.8    38    6.2   163    14.9   815.0    0.00 
 243   12:00   0.51   72.3    38    6.1   177    13.1   814.9    0.00 
 243   12:10   0.88   74.1    36    4.7   169     9.6   814.8    0.00 
 243   12:20   0.69   74.6    35    6.0   156    16.1   814.6    0.00 
 243   12:30   0.84   75.7    34    4.1   208    10.8   814.4    0.00 
 243   12:40   0.92   76.2    33    6.5   181    14.9   814.3    0.00 
 243   12:50   0.46   75.1    34    3.8   183     9.0   814.3    0.00 
 243   13:00   0.89   76.0    33    6.1   240    13.1   814.3    0.00 
 243   13:10   1.07   76.5    32    6.7   170    11.3   814.3    0.00 
 243   13:20   0.39   76.0    32    5.4   158    12.5   814.1    0.00 
 243   13:30   0.56   76.1    32    4.3   193    10.8   814.0    0.00 
 243   13:40   0.25   74.6    33    5.4   191    10.2   813.8    0.00 
 243   13:50   0.18   74.4    35    3.1    60     7.8   813.7    0.00 
 243   14:00   0.13   71.2    48    7.8   339    16.1   813.8    0.00 
 243   14:10   0.12   65.5    66    8.6     4    14.9   813.9    0.01 
 243   14:20   0.11   62.9    75    7.4    23    12.5   813.9    0.00 
 243   14:30   0.18   62.3    77    6.5    38    11.3   814.0    0.01 
 243   14:40   0.25   62.5    76    5.9     9    10.8   814.1    0.00 
 243   14:50   0.28   62.5    77    5.5    10     9.6   814.1    0.00 
 243   15:00   0.34   64.0    69    7.3    26    13.1   814.0    0.00 
 243   15:10   0.20   63.6    69    4.7    20     9.6   813.9    0.00 
 243   15:20   0.19   63.6    71    5.8     8    10.2   813.8    0.00 
 243   15:30   0.20   62.7    75    5.5    12     8.1   813.8    0.00 
 243   15:40   0.39   63.4    75    6.9    18    11.3   813.7    0.00 
 243   15:50   0.41   65.4    68    6.9    21    13.1   813.5    0.00 
 243   16:00   0.15   64.5    71    6.2    29    10.2   813.3    0.00 
 243   16:10   0.24   65.0    69    5.1    24     8.4   813.2    0.00 
 243   16:20   0.23   65.2    68    5.9    18     9.0   813.1    0.00 
 243   16:30   0.08   64.9    68    7.5    20    10.8   813.1    0.00 
 243   16:40   0.06   64.7    68    6.0    25     8.7   813.1    0.00 
 243   16:50   0.08   65.0    69    4.0    12     6.6   813.1    0.00 
 243   17:00   0.10   66.1    68    0.6   350     3.6   813.1    0.00 
 243   17:10   0.07   66.3    66    2.7    49     6.0   813.2    0.00 
 243   17:20   0.07   66.5    66    1.5   348     4.5   813.2    0.00 

Return to Jemez Springs, Valles Caldera graphs page.


Western Regional Climate Center,wrcc@dri.edu